sensor_id;sensor_type;location;lat;lon;timestamp;pressure;altitude;pressure_sealevel;temperature;humidity
60920;BME280;59039;52.108;19.942;2023-06-01T00:01:15;100718.92;;;15.74;42.30
60920;BME280;59039;52.108;19.942;2023-06-01T00:03:41;100717.33;;;15.70;42.18
60920;BME280;59039;52.108;19.942;2023-06-01T00:06:06;100721.13;;;15.67;42.14
60920;BME280;59039;52.108;19.942;2023-06-01T00:08:39;100718.84;;;15.61;42.07
60920;BME280;59039;52.108;19.942;2023-06-01T00:11:27;100717.95;;;15.55;42.14
60920;BME280;59039;52.108;19.942;2023-06-01T00:14:01;100718.70;;;15.51;42.62
60920;BME280;59039;52.108;19.942;2023-06-01T00:16:26;100716.17;;;15.47;42.97
60920;BME280;59039;52.108;19.942;2023-06-01T00:18:59;100711.33;;;15.45;42.73
60920;BME280;59039;52.108;19.942;2023-06-01T00:21:48;100710.82;;;15.43;43.46
60920;BME280;59039;52.108;19.942;2023-06-01T00:24:36;100705.27;;;15.40;43.45
60920;BME280;59039;52.108;19.942;2023-06-01T00:27:02;100702.88;;;15.37;43.43
60920;BME280;59039;52.108;19.942;2023-06-01T00:32:21;100701.95;;;15.31;43.96
60920;BME280;59039;52.108;19.942;2023-06-01T00:34:58;100704.10;;;15.27;43.81
60920;BME280;59039;52.108;19.942;2023-06-01T00:37:29;100705.86;;;15.24;43.72
60920;BME280;59039;52.108;19.942;2023-06-01T00:40:20;100704.77;;;15.23;43.71
60920;BME280;59039;52.108;19.942;2023-06-01T00:43:12;100706.03;;;15.21;43.47
60920;BME280;59039;52.108;19.942;2023-06-01T00:45:56;100705.88;;;15.19;43.15
60920;BME280;59039;52.108;19.942;2023-06-01T00:51:12;100702.67;;;15.15;43.12
60920;BME280;59039;52.108;19.942;2023-06-01T00:57:03;100699.58;;;15.11;43.82
60920;BME280;59039;52.108;19.942;2023-06-01T00:59:49;100701.91;;;15.08;44.20
60920;BME280;59039;52.108;19.942;2023-06-01T01:02:14;100696.48;;;15.04;44.06
60920;BME280;59039;52.108;19.942;2023-06-01T01:05:03;100694.89;;;15.02;43.93
60920;BME280;59039;52.108;19.942;2023-06-01T01:16:41;100688.86;;;14.88;44.88
60920;BME280;59039;52.108;19.942;2023-06-01T01:22:07;100686.90;;;14.80;45.77
60920;BME280;59039;52.108;19.942;2023-06-01T01:24:55;100683.46;;;14.76;44.51
60920;BME280;59039;52.108;19.942;2023-06-01T01:27:39;100687.10;;;14.74;45.16
60920;BME280;59039;52.108;19.942;2023-06-01T01:33:09;100684.06;;;14.66;45.78
60920;BME280;59039;52.108;19.942;2023-06-01T01:35:41;100679.39;;;14.63;45.58
60920;BME280;59039;52.108;19.942;2023-06-01T01:38:09;100676.47;;;14.59;45.71
60920;BME280;59039;52.108;19.942;2023-06-01T01:40:47;100670.77;;;14.56;45.17
60920;BME280;59039;52.108;19.942;2023-06-01T01:43:15;100670.19;;;14.53;45.23
60920;BME280;59039;52.108;19.942;2023-06-01T01:46:32;100673.23;;;14.51;45.66
60920;BME280;59039;52.108;19.942;2023-06-01T01:51:29;100667.40;;;14.44;46.30
60920;BME280;59039;52.108;19.942;2023-06-01T01:54:12;100664.44;;;14.42;45.90
60920;BME280;59039;52.108;19.942;2023-06-01T01:56:47;100661.81;;;14.39;45.43
60920;BME280;59039;52.108;19.942;2023-06-01T01:59:42;100660.64;;;14.36;45.63
60920;BME280;59039;52.108;19.942;2023-06-01T02:02:08;100657.26;;;14.34;46.05
60920;BME280;59039;52.108;19.942;2023-06-01T02:04:41;100657.85;;;14.32;46.81
60920;BME280;59039;52.108;19.942;2023-06-01T02:07:06;100658.31;;;14.30;47.12
60920;BME280;59039;52.108;19.942;2023-06-01T02:09:52;100656.02;;;14.29;46.27
60920;BME280;59039;52.108;19.942;2023-06-01T02:14:58;100653.63;;;14.24;46.83
60920;BME280;59039;52.108;19.942;2023-06-01T02:17:24;100650.73;;;14.23;46.88
60920;BME280;59039;52.108;19.942;2023-06-01T02:19:58;100646.35;;;14.21;46.94
60920;BME280;59039;52.108;19.942;2023-06-01T02:22:45;100646.54;;;14.19;46.79
60920;BME280;59039;52.108;19.942;2023-06-01T02:28:26;100650.80;;;14.18;46.80
60920;BME280;59039;52.108;19.942;2023-06-01T02:30:56;100648.44;;;14.17;47.30
60920;BME280;59039;52.108;19.942;2023-06-01T02:33:37;100645.98;;;14.16;46.95
60920;BME280;59039;52.108;19.942;2023-06-01T02:36:06;100645.84;;;14.15;47.15
60920;BME280;59039;52.108;19.942;2023-06-01T02:38:53;100642.33;;;14.14;47.42
60920;BME280;59039;52.108;19.942;2023-06-01T02:41:20;100641.20;;;14.13;47.69
60920;BME280;59039;52.108;19.942;2023-06-01T02:44:01;100643.19;;;14.13;47.56
60920;BME280;59039;52.108;19.942;2023-06-01T02:46:29;100641.93;;;14.11;48.13
60920;BME280;59039;52.108;19.942;2023-06-01T02:49:22;100641.19;;;14.08;47.60
60920;BME280;59039;52.108;19.942;2023-06-01T02:51:47;100639.75;;;14.07;47.75
60920;BME280;59039;52.108;19.942;2023-06-01T02:54:33;100640.36;;;14.04;48.14
60920;BME280;59039;52.108;19.942;2023-06-01T02:57:11;100638.28;;;14.04;48.10
60920;BME280;59039;52.108;19.942;2023-06-01T02:59:57;100636.54;;;14.03;48.56
60920;BME280;59039;52.108;19.942;2023-06-01T03:02:37;100641.86;;;14.03;48.80
60920;BME280;59039;52.108;19.942;2023-06-01T03:05:18;100643.38;;;14.02;48.72
60920;BME280;59039;52.108;19.942;2023-06-01T03:07:59;100641.33;;;14.03;48.74
60920;BME280;59039;52.108;19.942;2023-06-01T03:13:11;100641.45;;;14.03;48.61
60920;BME280;59039;52.108;19.942;2023-06-01T03:15:39;100648.87;;;14.03;49.03
60920;BME280;59039;52.108;19.942;2023-06-01T03:18:08;100646.54;;;14.05;49.71
60920;BME280;59039;52.108;19.942;2023-06-01T03:20:36;100640.91;;;14.06;49.84
60920;BME280;59039;52.108;19.942;2023-06-01T03:23:22;100635.96;;;14.08;49.35
60920;BME280;59039;52.108;19.942;2023-06-01T03:26:27;100635.23;;;14.11;49.62
60920;BME280;59039;52.108;19.942;2023-06-01T03:28:51;100634.36;;;14.14;49.42
60920;BME280;59039;52.108;19.942;2023-06-01T03:31:23;100636.80;;;14.16;49.45
60920;BME280;59039;52.108;19.942;2023-06-01T03:39:10;100629.98;;;14.33;50.15
60920;BME280;59039;52.108;19.942;2023-06-01T03:41:35;100631.10;;;14.39;49.83
60920;BME280;59039;52.108;19.942;2023-06-01T03:44:15;100628.50;;;14.46;50.39
60920;BME280;59039;52.108;19.942;2023-06-01T03:47:03;100626.48;;;14.55;50.23
60920;BME280;59039;52.108;19.942;2023-06-01T03:49:31;100628.05;;;14.65;50.52
60920;BME280;59039;52.108;19.942;2023-06-01T03:54:50;100622.39;;;14.89;50.67
60920;BME280;59039;52.108;19.942;2023-06-01T03:57:18;100618.80;;;15.02;50.57
60920;BME280;59039;52.108;19.942;2023-06-01T03:59:52;100618.58;;;15.17;50.58
60920;BME280;59039;52.108;19.942;2023-06-01T04:02:17;100613.23;;;15.31;50.49
60920;BME280;59039;52.108;19.942;2023-06-01T04:04:43;100608.35;;;15.45;50.73
60920;BME280;59039;52.108;19.942;2023-06-01T04:09:55;100603.30;;;15.72;50.60
60920;BME280;59039;52.108;19.942;2023-06-01T04:12:25;100604.55;;;15.86;50.26
60920;BME280;59039;52.108;19.942;2023-06-01T04:17:36;100598.02;;;16.14;50.16
60920;BME280;59039;52.108;19.942;2023-06-01T04:20:24;100597.62;;;16.30;49.87
60920;BME280;59039;52.108;19.942;2023-06-01T04:22:49;100595.02;;;16.45;49.64
60920;BME280;59039;52.108;19.942;2023-06-01T04:25:21;100591.35;;;16.58;49.36
60920;BME280;59039;52.108;19.942;2023-06-01T04:27:49;100590.78;;;16.72;49.29
60920;BME280;59039;52.108;19.942;2023-06-01T04:30:15;100592.30;;;16.85;49.06
60920;BME280;59039;52.108;19.942;2023-06-01T04:32:50;100588.81;;;17.01;49.11
60920;BME280;59039;52.108;19.942;2023-06-01T04:35:38;100585.64;;;17.19;48.66
60920;BME280;59039;52.108;19.942;2023-06-01T04:38:03;100582.67;;;17.38;48.52
60920;BME280;59039;52.108;19.942;2023-06-01T04:43:19;100575.70;;;17.70;47.80
60920;BME280;59039;52.108;19.942;2023-06-01T04:45:45;100573.84;;;17.84;47.32
60920;BME280;59039;52.108;19.942;2023-06-01T04:50:59;100576.63;;;18.16;47.29
60920;BME280;59039;52.108;19.942;2023-06-01T04:53:25;100579.05;;;18.30;47.21
60920;BME280;59039;52.108;19.942;2023-06-01T04:55:53;100577.63;;;18.48;47.05
60920;BME280;59039;52.108;19.942;2023-06-01T04:58:19;100574.97;;;18.65;46.94
60920;BME280;59039;52.108;19.942;2023-06-01T05:00:48;100574.84;;;18.80;46.44
60920;BME280;59039;52.108;19.942;2023-06-01T05:03:33;100571.42;;;18.92;45.93
60920;BME280;59039;52.108;19.942;2023-06-01T05:06:09;100565.93;;;19.04;46.24
60920;BME280;59039;52.108;19.942;2023-06-01T05:08:39;100562.79;;;19.17;46.05
60920;BME280;59039;52.108;19.942;2023-06-01T05:11:05;100562.23;;;19.29;45.74
60920;BME280;59039;52.108;19.942;2023-06-01T05:13:41;100560.34;;;19.40;46.13
60920;BME280;59039;52.108;19.942;2023-06-01T05:16:10;100560.11;;;19.54;45.86
60920;BME280;59039;52.108;19.942;2023-06-01T05:18:35;100553.96;;;19.67;46.02
60920;BME280;59039;52.108;19.942;2023-06-01T05:21:03;100553.61;;;19.79;45.89
60920;BME280;59039;52.108;19.942;2023-06-01T05:23:32;100554.84;;;19.90;45.83
60920;BME280;59039;52.108;19.942;2023-06-01T05:25:57;100554.79;;;19.99;44.96
60920;BME280;59039;52.108;19.942;2023-06-01T05:28:23;100547.61;;;20.10;44.63
60920;BME280;59039;52.108;19.942;2023-06-01T05:30:48;100548.61;;;20.20;44.07
60920;BME280;59039;52.108;19.942;2023-06-01T05:33:19;100547.39;;;20.30;43.42
60920;BME280;59039;52.108;19.942;2023-06-01T05:35:45;100546.14;;;20.40;42.77
60920;BME280;59039;52.108;19.942;2023-06-01T05:38:31;100542.30;;;20.49;42.57
60920;BME280;59039;52.108;19.942;2023-06-01T05:41:24;100539.34;;;20.62;42.39
60920;BME280;59039;52.108;19.942;2023-06-01T05:44:02;100536.52;;;20.75;42.00
60920;BME280;59039;52.108;19.942;2023-06-01T05:46:27;100529.27;;;20.87;41.52
60920;BME280;59039;52.108;19.942;2023-06-01T05:48:55;100528.52;;;21.01;42.40
60920;BME280;59039;52.108;19.942;2023-06-01T05:51:21;100530.21;;;21.16;42.40
60920;BME280;59039;52.108;19.942;2023-06-01T05:53:46;100530.91;;;21.34;42.50
60920;BME280;59039;52.108;19.942;2023-06-01T05:56:12;100527.29;;;21.56;41.49
60920;BME280;59039;52.108;19.942;2023-06-01T05:58:37;100524.83;;;21.76;41.26
60920;BME280;59039;52.108;19.942;2023-06-01T06:01:05;100525.02;;;21.97;40.57
60920;BME280;59039;52.108;19.942;2023-06-01T06:03:31;100527.48;;;22.17;39.89
60920;BME280;59039;52.108;19.942;2023-06-01T06:08:37;100525.77;;;22.60;38.82
60920;BME280;59039;52.108;19.942;2023-06-01T06:11:02;100525.89;;;22.85;38.59
60920;BME280;59039;52.108;19.942;2023-06-01T06:13:27;100524.61;;;23.08;37.19
60920;BME280;59039;52.108;19.942;2023-06-01T06:15:53;100520.36;;;23.29;37.41
60920;BME280;59039;52.108;19.942;2023-06-01T06:18:18;100518.77;;;23.53;37.25
60920;BME280;59039;52.108;19.942;2023-06-01T06:21:04;100517.52;;;23.77;36.35
60920;BME280;59039;52.108;19.942;2023-06-01T06:23:32;100515.05;;;24.03;34.99
60920;BME280;59039;52.108;19.942;2023-06-01T06:25:57;100515.56;;;24.33;34.77
60920;BME280;59039;52.108;19.942;2023-06-01T06:28:23;100514.60;;;24.60;33.85
60920;BME280;59039;52.108;19.942;2023-06-01T06:30:48;100519.45;;;24.87;34.14
60920;BME280;59039;52.108;19.942;2023-06-01T06:33:14;100517.05;;;25.12;33.31
60920;BME280;59039;52.108;19.942;2023-06-01T06:35:39;100517.86;;;25.43;33.90
60920;BME280;59039;52.108;19.942;2023-06-01T06:38:05;100515.41;;;25.69;32.37
60920;BME280;59039;52.108;19.942;2023-06-01T06:40:32;100514.64;;;25.90;31.69
60920;BME280;59039;52.108;19.942;2023-06-01T06:43:00;100516.30;;;26.10;30.73
60920;BME280;59039;52.108;19.942;2023-06-01T06:45:26;100513.02;;;26.29;31.21
60920;BME280;59039;52.108;19.942;2023-06-01T06:47:51;100511.09;;;26.50;31.39
60920;BME280;59039;52.108;19.942;2023-06-01T06:50:16;100511.48;;;26.63;31.45
60920;BME280;59039;52.108;19.942;2023-06-01T06:52:42;100508.91;;;26.74;31.13
60920;BME280;59039;52.108;19.942;2023-06-01T06:55:07;100510.88;;;26.89;30.43
60920;BME280;59039;52.108;19.942;2023-06-01T06:57:33;100511.94;;;27.03;30.42
60920;BME280;59039;52.108;19.942;2023-06-01T06:59:58;100508.86;;;27.13;30.10
60920;BME280;59039;52.108;19.942;2023-06-01T07:02:23;100504.77;;;27.16;29.63
60920;BME280;59039;52.108;19.942;2023-06-01T07:04:49;100497.27;;;27.18;28.55
60920;BME280;59039;52.108;19.942;2023-06-01T07:07:14;100493.32;;;27.20;27.89
60920;BME280;59039;52.108;19.942;2023-06-01T07:09:39;100486.91;;;27.25;27.96
60920;BME280;59039;52.108;19.942;2023-06-01T07:12:05;100485.25;;;27.38;28.54
60920;BME280;59039;52.108;19.942;2023-06-01T07:14:30;100485.78;;;27.47;28.17
60920;BME280;59039;52.108;19.942;2023-06-01T07:16:56;100479.64;;;27.59;29.00
60920;BME280;59039;52.108;19.942;2023-06-01T07:19:21;100478.50;;;27.72;27.69
60920;BME280;59039;52.108;19.942;2023-06-01T07:21:46;100478.08;;;27.85;28.30
60920;BME280;59039;52.108;19.942;2023-06-01T07:24:12;100480.64;;;27.99;27.82
60920;BME280;59039;52.108;19.942;2023-06-01T07:26:37;100478.15;;;28.14;27.30
60920;BME280;59039;52.108;19.942;2023-06-01T07:29:02;100476.55;;;28.29;26.55
60920;BME280;59039;52.108;19.942;2023-06-01T07:31:27;100473.77;;;28.41;26.16
60920;BME280;59039;52.108;19.942;2023-06-01T07:33:53;100471.29;;;28.55;25.59
60920;BME280;59039;52.108;19.942;2023-06-01T07:36:19;100467.54;;;28.68;25.49
60920;BME280;59039;52.108;19.942;2023-06-01T07:38:44;100467.65;;;28.82;25.27
60920;BME280;59039;52.108;19.942;2023-06-01T07:41:09;100464.43;;;28.98;25.27
60920;BME280;59039;52.108;19.942;2023-06-01T07:43:36;100461.36;;;29.17;25.52
60920;BME280;59039;52.108;19.942;2023-06-01T07:46:01;100454.55;;;29.30;25.03
60920;BME280;59039;52.108;19.942;2023-06-01T07:48:27;100453.04;;;29.54;25.34
60920;BME280;59039;52.108;19.942;2023-06-01T07:50:52;100451.66;;;29.69;24.61
60920;BME280;59039;52.108;19.942;2023-06-01T07:53:17;100453.73;;;29.75;23.71
60920;BME280;59039;52.108;19.942;2023-06-01T07:55:42;100450.13;;;29.89;24.95
60920;BME280;59039;52.108;19.942;2023-06-01T07:58:08;100452.83;;;30.02;24.25
60920;BME280;59039;52.108;19.942;2023-06-01T08:00:33;100455.73;;;30.14;24.02
60920;BME280;59039;52.108;19.942;2023-06-01T08:02:58;100454.52;;;30.27;23.92
60920;BME280;59039;52.108;19.942;2023-06-01T08:05:23;100447.98;;;30.44;24.21
60920;BME280;59039;52.108;19.942;2023-06-01T08:07:49;100449.94;;;30.56;23.96
60920;BME280;59039;52.108;19.942;2023-06-01T08:10:14;100448.86;;;30.70;23.97
60920;BME280;59039;52.108;19.942;2023-06-01T08:12:39;100453.58;;;30.86;24.00
60920;BME280;59039;52.108;19.942;2023-06-01T08:15:05;100453.72;;;30.98;23.02
60920;BME280;59039;52.108;19.942;2023-06-01T08:17:30;100450.15;;;31.10;22.84
60920;BME280;59039;52.108;19.942;2023-06-01T08:19:56;100448.47;;;31.11;22.57
60920;BME280;59039;52.108;19.942;2023-06-01T08:22:21;100440.61;;;31.11;22.49
60920;BME280;59039;52.108;19.942;2023-06-01T08:24:46;100441.55;;;31.05;23.23
60920;BME280;59039;52.108;19.942;2023-06-01T08:27:22;100441.40;;;31.01;23.58
60920;BME280;59039;52.108;19.942;2023-06-01T08:29:49;100439.92;;;30.85;23.13
60920;BME280;59039;52.108;19.942;2023-06-01T08:32:15;100439.28;;;30.66;22.98
60920;BME280;59039;52.108;19.942;2023-06-01T08:34:43;100441.95;;;30.50;23.16
60920;BME280;59039;52.108;19.942;2023-06-01T08:37:08;100440.40;;;30.27;22.67
60920;BME280;59039;52.108;19.942;2023-06-01T08:39:34;100436.02;;;30.00;23.60
60920;BME280;59039;52.108;19.942;2023-06-01T08:44:45;100426.10;;;29.55;24.64
60920;BME280;59039;52.108;19.942;2023-06-01T08:47:12;100424.55;;;29.34;25.19
60920;BME280;59039;52.108;19.942;2023-06-01T08:49:40;100419.98;;;29.12;25.40
60920;BME280;59039;52.108;19.942;2023-06-01T08:52:13;100417.77;;;28.92;26.07
60920;BME280;59039;52.108;19.942;2023-06-01T08:54:39;100414.13;;;28.75;26.46
60920;BME280;59039;52.108;19.942;2023-06-01T08:57:06;100413.48;;;28.60;26.15
60920;BME280;59039;52.108;19.942;2023-06-01T08:59:32;100412.77;;;28.40;25.99
60920;BME280;59039;52.108;19.942;2023-06-01T09:01:58;100410.27;;;28.16;26.21
60920;BME280;59039;52.108;19.942;2023-06-01T09:04:26;100405.86;;;27.96;26.87
60920;BME280;59039;52.108;19.942;2023-06-01T09:06:51;100405.13;;;27.80;27.06
60920;BME280;59039;52.108;19.942;2023-06-01T09:09:16;100400.00;;;27.64;27.41
60920;BME280;59039;52.108;19.942;2023-06-01T09:11:41;100395.88;;;27.49;27.61
60920;BME280;59039;52.108;19.942;2023-06-01T09:14:23;100397.33;;;27.35;28.10
60920;BME280;59039;52.108;19.942;2023-06-01T09:16:50;100395.92;;;27.21;28.67
60920;BME280;59039;52.108;19.942;2023-06-01T09:19:15;100401.26;;;27.10;28.72
60920;BME280;59039;52.108;19.942;2023-06-01T09:21:57;100396.73;;;26.98;28.63
60920;BME280;59039;52.108;19.942;2023-06-01T09:24:22;100392.79;;;26.87;29.20
60920;BME280;59039;52.108;19.942;2023-06-01T09:26:48;100395.47;;;26.75;29.18
60920;BME280;59039;52.108;19.942;2023-06-01T09:29:14;100396.17;;;26.63;29.63
60920;BME280;59039;52.108;19.942;2023-06-01T09:31:44;100397.95;;;26.50;29.52
60920;BME280;59039;52.108;19.942;2023-06-01T09:34:11;100394.65;;;26.35;29.33
60920;BME280;59039;52.108;19.942;2023-06-01T09:36:37;100394.46;;;26.25;29.81
60920;BME280;59039;52.108;19.942;2023-06-01T09:39:03;100397.08;;;26.16;29.96
60920;BME280;59039;52.108;19.942;2023-06-01T09:41:50;100392.17;;;26.07;30.06
60920;BME280;59039;52.108;19.942;2023-06-01T09:46:50;100389.38;;;25.94;30.36
60920;BME280;59039;52.108;19.942;2023-06-01T09:49:25;100385.83;;;25.88;29.84
60920;BME280;59039;52.108;19.942;2023-06-01T09:51:52;100383.20;;;25.84;29.81
60920;BME280;59039;52.108;19.942;2023-06-01T09:54:28;100376.43;;;25.77;30.16
60920;BME280;59039;52.108;19.942;2023-06-01T09:56:54;100374.17;;;25.71;30.24
60920;BME280;59039;52.108;19.942;2023-06-01T09:59:23;100368.24;;;25.67;30.37
60920;BME280;59039;52.108;19.942;2023-06-01T10:01:53;100364.55;;;25.65;30.64
60920;BME280;59039;52.108;19.942;2023-06-01T10:04:22;100371.86;;;25.61;30.76
60920;BME280;59039;52.108;19.942;2023-06-01T10:06:48;100378.64;;;25.58;30.19
60920;BME280;59039;52.108;19.942;2023-06-01T10:09:14;100371.91;;;25.54;30.38
60920;BME280;59039;52.108;19.942;2023-06-01T10:11:40;100363.71;;;25.53;30.17
60920;BME280;59039;52.108;19.942;2023-06-01T10:14:05;100364.91;;;25.51;30.29
60920;BME280;59039;52.108;19.942;2023-06-01T10:16:31;100362.27;;;25.50;30.36
60920;BME280;59039;52.108;19.942;2023-06-01T10:18:57;100358.98;;;25.49;30.26
60920;BME280;59039;52.108;19.942;2023-06-01T10:21:25;100351.58;;;25.49;30.55
60920;BME280;59039;52.108;19.942;2023-06-01T10:23:51;100347.91;;;25.50;30.46
60920;BME280;59039;52.108;19.942;2023-06-01T10:26:17;100345.95;;;25.49;30.42
60920;BME280;59039;52.108;19.942;2023-06-01T10:28:45;100337.06;;;25.49;30.68
60920;BME280;59039;52.108;19.942;2023-06-01T10:31:39;100344.08;;;25.49;30.94
60920;BME280;59039;52.108;19.942;2023-06-01T10:34:06;100341.16;;;25.49;30.53
60920;BME280;59039;52.108;19.942;2023-06-01T10:39:31;100338.22;;;25.49;29.48
60920;BME280;59039;52.108;19.942;2023-06-01T10:41:58;100333.15;;;25.48;29.74
60920;BME280;59039;52.108;19.942;2023-06-01T10:54:49;100326.86;;;25.52;30.40
60920;BME280;59039;52.108;19.942;2023-06-01T10:57:19;100323.59;;;25.53;30.50
60920;BME280;59039;52.108;19.942;2023-06-01T11:00:08;100320.48;;;25.53;30.49
60920;BME280;59039;52.108;19.942;2023-06-01T11:02:33;100316.95;;;25.52;29.96
60920;BME280;59039;52.108;19.942;2023-06-01T11:05:38;100313.02;;;25.51;29.49
60920;BME280;59039;52.108;19.942;2023-06-01T11:08:05;100308.32;;;25.48;29.18
60920;BME280;59039;52.108;19.942;2023-06-01T11:21:08;100302.42;;;25.48;28.64
60920;BME280;59039;52.108;19.942;2023-06-01T11:23:34;100299.80;;;25.48;28.96
60920;BME280;59039;52.108;19.942;2023-06-01T11:26:01;100290.64;;;25.48;29.14
60920;BME280;59039;52.108;19.942;2023-06-01T11:28:30;100287.70;;;25.49;28.92
60920;BME280;59039;52.108;19.942;2023-06-01T11:30:56;100287.66;;;25.50;28.54
60920;BME280;59039;52.108;19.942;2023-06-01T11:33:21;100287.83;;;25.51;28.68
60920;BME280;59039;52.108;19.942;2023-06-01T11:35:47;100283.31;;;25.50;28.84
60920;BME280;59039;52.108;19.942;2023-06-01T11:38:12;100276.14;;;25.51;29.21
60920;BME280;59039;52.108;19.942;2023-06-01T11:40:38;100272.70;;;25.51;29.17
60920;BME280;59039;52.108;19.942;2023-06-01T11:43:03;100273.05;;;25.53;29.18
60920;BME280;59039;52.108;19.942;2023-06-01T11:45:29;100268.96;;;25.56;28.98
60920;BME280;59039;52.108;19.942;2023-06-01T11:47:54;100266.66;;;25.57;29.30
60920;BME280;59039;52.108;19.942;2023-06-01T11:50:20;100265.41;;;25.59;28.91
60920;BME280;59039;52.108;19.942;2023-06-01T11:52:46;100257.57;;;25.60;28.69
60920;BME280;59039;52.108;19.942;2023-06-01T11:55:11;100257.98;;;25.62;28.54
60920;BME280;59039;52.108;19.942;2023-06-01T11:57:40;100257.17;;;25.64;28.64
60920;BME280;59039;52.108;19.942;2023-06-01T12:00:10;100254.12;;;25.65;28.22
60920;BME280;59039;52.108;19.942;2023-06-01T12:02:36;100247.06;;;25.66;28.31
60920;BME280;59039;52.108;19.942;2023-06-01T12:05:07;100247.98;;;25.67;28.12
60920;BME280;59039;52.108;19.942;2023-06-01T12:07:48;100245.47;;;25.68;28.38
60920;BME280;59039;52.108;19.942;2023-06-01T12:10:15;100242.24;;;25.68;28.31
60920;BME280;59039;52.108;19.942;2023-06-01T12:12:41;100243.93;;;25.69;28.16
60920;BME280;59039;52.108;19.942;2023-06-01T12:15:08;100246.05;;;25.70;28.49
60920;BME280;59039;52.108;19.942;2023-06-01T12:17:53;100244.02;;;25.72;28.63
60920;BME280;59039;52.108;19.942;2023-06-01T12:22:54;100230.20;;;25.74;28.44
60920;BME280;59039;52.108;19.942;2023-06-01T12:25:19;100220.45;;;25.75;27.70
60920;BME280;59039;52.108;19.942;2023-06-01T12:27:59;100213.83;;;25.75;28.07
60920;BME280;59039;52.108;19.942;2023-06-01T12:30:24;100222.98;;;25.76;28.40
60920;BME280;59039;52.108;19.942;2023-06-01T12:32:50;100222.09;;;25.77;28.14
60920;BME280;59039;52.108;19.942;2023-06-01T12:35:15;100214.83;;;25.79;28.28
60920;BME280;59039;52.108;19.942;2023-06-01T12:37:41;100206.60;;;25.81;28.33
60920;BME280;59039;52.108;19.942;2023-06-01T12:40:07;100211.25;;;25.83;28.35
60920;BME280;59039;52.108;19.942;2023-06-01T12:42:41;100213.11;;;25.84;28.27
60920;BME280;59039;52.108;19.942;2023-06-01T12:45:07;100209.63;;;25.86;28.27
60920;BME280;59039;52.108;19.942;2023-06-01T12:47:50;100210.73;;;25.89;28.09
60920;BME280;59039;52.108;19.942;2023-06-01T12:50:15;100209.23;;;25.90;27.15
60920;BME280;59039;52.108;19.942;2023-06-01T12:52:41;100209.10;;;25.92;27.21
60920;BME280;59039;52.108;19.942;2023-06-01T12:55:07;100204.76;;;25.93;27.17
60920;BME280;59039;52.108;19.942;2023-06-01T12:57:33;100202.16;;;25.94;27.11
60920;BME280;59039;52.108;19.942;2023-06-01T12:59:59;100196.44;;;25.95;27.44
60920;BME280;59039;52.108;19.942;2023-06-01T13:02:24;100193.28;;;25.97;27.69
60920;BME280;59039;52.108;19.942;2023-06-01T13:04:50;100195.75;;;25.98;27.36
60920;BME280;59039;52.108;19.942;2023-06-01T13:07:15;100194.77;;;25.99;27.15
60920;BME280;59039;52.108;19.942;2023-06-01T13:09:41;100191.64;;;25.99;27.29
60920;BME280;59039;52.108;19.942;2023-06-01T13:12:07;100195.16;;;26.00;27.56
60920;BME280;59039;52.108;19.942;2023-06-01T13:14:32;100185.91;;;26.01;27.54
60920;BME280;59039;52.108;19.942;2023-06-01T13:16:57;100183.27;;;26.03;27.75
60920;BME280;59039;52.108;19.942;2023-06-01T13:19:25;100182.21;;;26.03;27.44
60920;BME280;59039;52.108;19.942;2023-06-01T13:21:51;100183.10;;;26.03;27.07
60920;BME280;59039;52.108;19.942;2023-06-01T13:24:17;100184.27;;;26.04;27.00
60920;BME280;59039;52.108;19.942;2023-06-01T13:26:42;100174.77;;;26.05;27.15
60920;BME280;59039;52.108;19.942;2023-06-01T13:29:07;100175.05;;;26.05;27.24
60920;BME280;59039;52.108;19.942;2023-06-01T13:31:33;100178.55;;;26.06;27.58
60920;BME280;59039;52.108;19.942;2023-06-01T13:34:08;100174.85;;;26.08;27.83
60920;BME280;59039;52.108;19.942;2023-06-01T13:36:33;100167.60;;;26.09;27.52
60920;BME280;59039;52.108;19.942;2023-06-01T13:38:58;100171.96;;;26.09;27.75
60920;BME280;59039;52.108;19.942;2023-06-01T13:41:24;100167.35;;;26.10;27.45
60920;BME280;59039;52.108;19.942;2023-06-01T13:43:49;100169.47;;;26.11;27.66
60920;BME280;59039;52.108;19.942;2023-06-01T13:46:14;100163.06;;;26.11;27.94
60920;BME280;59039;52.108;19.942;2023-06-01T13:48:40;100158.89;;;26.12;27.82
60920;BME280;59039;52.108;19.942;2023-06-01T13:51:05;100162.69;;;26.12;27.96
60920;BME280;59039;52.108;19.942;2023-06-01T13:53:30;100160.73;;;26.13;27.53
60920;BME280;59039;52.108;19.942;2023-06-01T13:55:56;100155.91;;;26.14;27.64
60920;BME280;59039;52.108;19.942;2023-06-01T13:58:21;100155.52;;;26.15;27.37
60920;BME280;59039;52.108;19.942;2023-06-01T14:00:46;100158.26;;;26.16;27.50
60920;BME280;59039;52.108;19.942;2023-06-01T14:03:12;100158.54;;;26.16;27.70
60920;BME280;59039;52.108;19.942;2023-06-01T14:05:37;100152.48;;;26.16;27.75
60920;BME280;59039;52.108;19.942;2023-06-01T14:08:02;100151.08;;;26.17;27.71
60920;BME280;59039;52.108;19.942;2023-06-01T14:10:27;100146.18;;;26.17;28.20
60920;BME280;59039;52.108;19.942;2023-06-01T14:12:53;100140.45;;;26.17;28.39
60920;BME280;59039;52.108;19.942;2023-06-01T14:15:18;100139.89;;;26.17;28.26
60920;BME280;59039;52.108;19.942;2023-06-01T14:17:43;100139.05;;;26.18;28.71
60920;BME280;59039;52.108;19.942;2023-06-01T14:20:09;100131.30;;;26.18;29.36
60920;BME280;59039;52.108;19.942;2023-06-01T14:22:34;100132.31;;;26.17;29.40